Time;durP1;ratioP1;P1;durP2;ratioP2;P2;SDS_P1;SDS_P2;PMS_P1;PMS_P2;Temp;Humidity;BMP_temperature;BMP_pressure;BME280_temperature;BME280_humidity;BME280_pressure;Samples;Min_cycle;Max_cycle;Signal;HPM_P1;HPM_P2
2022/12/23 00:01:07;;;;;;;39.23;19.00;;;10.60;99.90;;;;;;5036094;28;20029;-83
2022/12/23 00:03:33;;;;;;;37.93;22.10;;;10.60;99.90;;;;;;5035073;28;20034;-83
2022/12/23 00:05:59;;;;;;;41.10;21.57;;;10.60;99.90;;;;;;5035572;28;20155;-82
2022/12/23 00:08:26;;;;;;;37.60;20.77;;;10.60;99.90;;;;;;5034368;28;20454;-82
2022/12/23 00:10:53;;;;;;;38.00;22.10;;;10.70;99.90;;;;;;5034492;28;20040;-82
2022/12/23 00:16:09;;;;;;;40.20;21.47;;;10.60;99.90;;;;;;5035582;28;20040;-83
2022/12/23 00:18:35;;;;;;;41.40;21.50;;;10.60;99.90;;;;;;5035358;28;20022;-83
2022/12/23 00:21:03;;;;;;;45.50;22.37;;;10.60;99.90;;;;;;5033673;28;20032;-82
2022/12/23 00:23:32;;;;;;;41.90;21.50;;;10.70;99.90;;;;;;5035338;28;20053;-84
2022/12/23 00:25:58;;;;;;;45.83;22.90;;;10.60;99.90;;;;;;5033965;28;20029;-83
2022/12/23 00:28:25;;;;;;;40.00;21.20;;;10.70;99.90;;;;;;5033898;28;20048;-83
2022/12/23 00:31:03;;;;;;;49.63;22.20;;;10.60;99.90;;;;;;5033962;28;20033;-82
2022/12/23 00:33:34;;;;;;;41.55;21.98;;;10.70;99.90;;;;;;5034000;28;20503;-83
2022/12/23 00:36:00;;;;;;;45.40;22.63;;;10.70;99.90;;;;;;5035764;28;20501;-83
2022/12/23 00:44:01;;;;;;;37.07;20.93;;;10.60;99.90;;;;;;5035210;28;20316;-83
2022/12/23 00:46:27;;;;;;;38.63;20.45;;;10.60;99.90;;;;;;5050768;28;20029;-83
2022/12/23 00:51:37;;;;;;;45.20;21.70;;;10.70;99.90;;;;;;5034702;28;20053;-83
2022/12/23 00:54:03;;;;;;;44.43;21.73;;;10.70;99.90;;;;;;5016805;28;20026;-83
2022/12/23 00:56:28;;;;;;;45.83;22.63;;;10.70;99.90;;;;;;5034617;28;20080;-83
2022/12/23 00:58:54;;;;;;;39.50;21.30;;;10.60;99.90;;;;;;5033495;28;20030;-83
2022/12/23 01:07:06;;;;;;;44.20;20.85;;;10.60;99.90;;;;;;5012388;28;20120;-83
2022/12/23 01:09:32;;;;;;;49.10;21.07;;;10.60;99.90;;;;;;5029970;28;20064;-83
2022/12/23 01:11:58;;;;;;;41.27;21.10;;;10.60;99.90;;;;;;5050128;28;20022;-83
2022/12/23 01:14:23;;;;;;;38.53;19.03;;;10.60;99.90;;;;;;5033102;28;20044;-83
2022/12/23 01:16:49;;;;;;;37.17;18.07;;;10.60;99.90;;;;;;5032628;28;20045;-84
2022/12/23 01:19:15;;;;;;;40.07;17.77;;;10.60;99.90;;;;;;5032847;28;20032;-84
2022/12/23 01:21:40;;;;;;;31.63;18.27;;;10.60;99.90;;;;;;5016169;28;20039;-83
2022/12/23 01:24:06;;;;;;;48.40;19.73;;;10.60;99.90;;;;;;5016684;28;20486;-83
2022/12/23 01:26:32;;;;;;;35.38;17.13;;;10.60;99.90;;;;;;5033072;28;20029;-83
2022/12/23 01:28:58;;;;;;;41.43;18.77;;;10.60;99.90;;;;;;5033702;28;20542;-83
2022/12/23 01:31:25;;;;;;;42.73;19.90;;;10.60;99.90;;;;;;5032441;28;20454;-83
2022/12/23 01:33:52;;;;;;;41.23;18.73;;;10.60;99.90;;;;;;5032973;28;20025;-83
2022/12/23 01:36:18;;;;;;;42.43;20.93;;;10.60;99.90;;;;;;5032545;28;20037;-83
2022/12/23 01:38:44;;;;;;;42.40;19.37;;;10.50;99.90;;;;;;5033568;28;20041;-83
2022/12/23 01:44:49;;;;;;;35.50;18.47;;;10.60;99.90;;;;;;5033709;28;20051;-83
2022/12/23 01:47:24;;;;;;;35.27;18.27;;;10.50;99.90;;;;;;5034174;28;20039;-83
2022/12/23 01:49:56;;;;;;;29.83;17.07;;;10.50;99.90;;;;;;5031925;28;20026;-82
2022/12/23 01:52:22;;;;;;;39.37;19.47;;;10.60;99.90;;;;;;5031702;28;20025;-83
2022/12/23 01:54:47;;;;;;;34.37;17.60;;;10.50;99.90;;;;;;5032319;28;20099;-83
2022/12/23 01:57:13;;;;;;;40.03;18.17;;;10.50;99.90;;;;;;5032590;28;20028;-83
2022/12/23 02:05:11;;;;;;;40.20;20.57;;;10.60;99.90;;;;;;5033089;28;20059;-82
2022/12/23 02:10:26;;;;;;;35.50;20.80;;;10.50;99.90;;;;;;5046594;28;20096;-83
2022/12/23 02:13:15;;;;;;;42.37;20.60;;;10.50;99.90;;;;;;5032899;28;20026;-82
2022/12/23 02:18:56;;;;;;;41.60;20.87;;;10.50;99.90;;;;;;5033335;28;20040;-83
2022/12/23 02:21:56;;;;;;;43.00;22.47;;;10.60;99.90;;;;;;5031472;28;20044;-82
2022/12/23 02:24:30;;;;;;;41.63;21.87;;;10.50;99.90;;;;;;5031628;28;20083;-82
2022/12/23 02:27:17;;;;;;;41.53;20.77;;;10.50;99.90;;;;;;5032878;28;20029;-82
2022/12/23 02:29:55;;;;;;;40.40;20.73;;;10.50;99.90;;;;;;5031462;28;20018;-83
2022/12/23 02:32:23;;;;;;;41.00;22.03;;;10.50;99.90;;;;;;5032930;28;20429;-82
2022/12/23 02:34:54;;;;;;;40.47;19.70;;;10.50;99.90;;;;;;5033692;28;20045;-83
2022/12/23 02:37:35;;;;;;;40.13;20.80;;;10.50;99.90;;;;;;5031542;28;20036;-83
2022/12/23 02:40:09;;;;;;;41.57;21.27;;;10.50;99.90;;;;;;5031395;28;20030;-83
2022/12/23 02:42:45;;;;;;;43.30;20.63;;;10.50;99.90;;;;;;5031943;28;20022;-83
2022/12/23 02:45:22;;;;;;;52.83;22.53;;;10.50;99.90;;;;;;5032834;28;20037;-82
2022/12/23 02:47:54;;;;;;;51.97;22.13;;;10.60;99.90;;;;;;5031747;28;20436;-83
2022/12/23 02:50:29;;;;;;;42.00;21.00;;;10.50;99.90;;;;;;5031174;28;20393;-83
2022/12/23 02:52:59;;;;;;;49.17;23.47;;;10.50;99.90;;;;;;5033301;28;20028;-83
2022/12/23 02:55:28;;;;;;;47.33;22.60;;;10.60;99.90;;;;;;5031588;28;20029;-82
2022/12/23 02:57:56;;;;;;;54.60;24.55;;;10.50;99.90;;;;;;5031541;28;20026;-83
2022/12/23 03:00:22;;;;;;;50.70;24.83;;;10.60;99.90;;;;;;5032808;28;20523;-82
2022/12/23 03:02:48;;;;;;;47.10;22.97;;;10.60;99.90;;;;;;5048157;28;20478;-82
2022/12/23 03:05:40;;;;;;;50.07;22.63;;;10.50;99.90;;;;;;5014909;28;20071;-82
2022/12/23 03:08:14;;;;;;;56.33;25.60;;;10.60;99.90;;;;;;5031766;28;20083;-82
2022/12/23 03:10:46;;;;;;;53.90;25.23;;;10.60;99.90;;;;;;5032878;28;20056;-83
2022/12/23 03:13:37;;;;;;;56.53;25.83;;;10.60;99.90;;;;;;5031260;28;20382;-82
2022/12/23 03:16:14;;;;;;;57.03;24.02;;;10.50;99.90;;;;;;5033374;28;20485;-83
2022/12/23 03:18:58;;;;;;;55.60;24.23;;;10.60;99.90;;;;;;5033235;28;20026;-84
2022/12/23 03:21:39;;;;;;;;;;;10.50;99.90;;;;;;5032118;28;20462;-82
2022/12/23 03:24:39;;;;;;;60.30;25.10;;;10.50;99.90;;;;;;5048328;28;19952;-82
2022/12/23 03:27:35;;;;;;;52.60;22.90;;;10.50;99.90;;;;;;5035444;28;20072;-83
2022/12/23 03:30:17;;;;;;;47.63;22.47;;;10.50;99.90;;;;;;5029545;28;20036;-83
2022/12/23 03:33:01;;;;;;;47.67;21.63;;;10.50;99.90;;;;;;5035760;28;20120;-82
2022/12/23 03:35:39;;;;;;;37.08;17.23;;;10.50;99.90;;;;;;5035539;28;20035;-82
2022/12/23 03:38:08;;;;;;;36.00;16.17;;;10.50;99.90;;;;;;5036405;28;20073;-83
2022/12/23 03:40:34;;;;;;;36.27;16.23;;;10.50;99.90;;;;;;5036887;28;20025;-85
2022/12/23 03:43:06;;;;;;;37.57;16.63;;;10.40;99.90;;;;;;5036888;28;20033;-85
2022/12/23 03:45:43;;;;;;;29.03;13.53;;;10.40;99.90;;;;;;5038307;28;20540;-85
2022/12/23 03:48:18;;;;;;;29.17;12.87;;;10.40;99.90;;;;;;5036374;28;20037;-84
2022/12/23 03:50:46;;;;;;;27.50;12.47;;;10.40;99.90;;;;;;5035174;28;20559;-82
2022/12/23 03:53:24;;;;;;;26.60;12.37;;;10.40;99.90;;;;;;5020761;28;20034;-83
2022/12/23 03:56:02;;;;;;;24.93;11.33;;;10.40;99.90;;;;;;5031215;28;20120;-83
2022/12/23 03:58:34;;;;;;;27.67;11.87;;;10.40;99.90;;;;;;5027037;28;20025;-84
2022/12/23 04:01:26;;;;;;;25.47;11.23;;;10.40;99.90;;;;;;5031926;28;20025;-84
2022/12/23 04:04:00;;;;;;;24.43;11.03;;;10.40;99.90;;;;;;5032496;28;20513;-83
2022/12/23 04:06:28;;;;;;;;;;;10.40;99.90;;;;;;5033541;28;20029;-83
2022/12/23 04:08:56;;;;;;;18.37;9.07;;;10.30;99.90;;;;;;5035535;28;19905;-83
2022/12/23 04:11:22;;;;;;;20.57;10.77;;;10.30;99.90;;;;;;5035504;28;20087;-83
2022/12/23 04:13:48;;;;;;;23.57;10.87;;;10.30;99.90;;;;;;5050621;28;20029;-83
2022/12/23 04:16:14;;;;;;;21.73;11.07;;;10.30;99.90;;;;;;5034305;28;20120;-83
2022/12/23 04:18:39;;;;;;;21.40;11.57;;;10.30;99.90;;;;;;5034224;28;20029;-83
2022/12/23 04:21:05;;;;;;;23.37;11.57;;;10.30;99.90;;;;;;5033937;28;20524;-83
2022/12/23 04:23:31;;;;;;;24.33;12.83;;;10.30;99.90;;;;;;5017047;28;20087;-84
2022/12/23 04:25:56;;;;;;;22.23;11.73;;;10.30;99.90;;;;;;5017268;28;20028;-83
2022/12/23 04:28:22;;;;;;;22.90;12.07;;;10.20;99.90;;;;;;5050652;28;20083;-83
2022/12/23 04:30:47;;;;;;;23.40;12.60;;;10.30;99.90;;;;;;5035031;28;20041;-83
2022/12/23 04:33:13;;;;;;;26.67;12.77;;;10.30;99.90;;;;;;5034274;28;20053;-83
2022/12/23 04:35:39;;;;;;;23.67;12.13;;;10.30;99.90;;;;;;5035434;28;20035;-83
2022/12/23 04:38:04;;;;;;;23.47;11.33;;;10.20;99.90;;;;;;5033638;28;20064;-83
2022/12/23 04:40:30;;;;;;;23.50;11.10;;;10.20;99.90;;;;;;5050418;28;20112;-84
2022/12/23 04:42:56;;;;;;;23.63;11.80;;;10.20;99.90;;;;;;5034721;28;20025;-83
2022/12/23 04:45:21;;;;;;;23.93;12.00;;;10.20;99.90;;;;;;5017197;28;20045;-83
2022/12/23 04:47:47;;;;;;;29.53;13.10;;;10.20;99.90;;;;;;5050135;28;20052;-83
2022/12/23 04:50:14;;;;;;;30.27;14.47;;;10.20;99.90;;;;;;5049707;28;20029;-83
2022/12/23 04:52:40;;;;;;;25.90;13.50;;;10.20;99.90;;;;;;5033395;28;20029;-83
2022/12/23 04:55:06;;;;;;;26.40;13.93;;;10.20;99.90;;;;;;5033622;28;20151;-84
2022/12/23 04:57:32;;;;;;;28.33;13.30;;;10.20;99.90;;;;;;5033194;28;20033;-83
2022/12/23 04:59:57;;;;;;;33.00;15.60;;;10.20;99.90;;;;;;5032920;28;20029;-83
2022/12/23 05:02:23;;;;;;;27.13;13.60;;;10.20;99.90;;;;;;5049972;28;20035;-83
2022/12/23 05:04:49;;;;;;;32.87;15.03;;;10.20;99.90;;;;;;5033294;28;20072;-83
2022/12/23 05:07:14;;;;;;;28.03;13.83;;;10.20;99.90;;;;;;5034389;28;20073;-85
2022/12/23 05:09:41;;;;;;;29.53;14.90;;;10.20;99.90;;;;;;5033324;28;20036;-84
2022/12/23 05:12:07;;;;;;;35.90;16.83;;;10.20;99.90;;;;;;5032957;28;20038;-83
2022/12/23 05:14:32;;;;;;;36.37;15.83;;;10.20;99.90;;;;;;5033390;28;20040;-84
2022/12/23 05:16:58;;;;;;;37.53;16.00;;;10.20;99.90;;;;;;5033010;28;20030;-83
2022/12/23 05:19:23;;;;;;;38.33;16.60;;;10.20;99.90;;;;;;5032981;28;20030;-83
2022/12/23 05:21:49;;;;;;;34.20;16.37;;;10.20;99.90;;;;;;5032833;28;20118;-84
2022/12/23 05:24:15;;;;;;;31.15;15.60;;;10.20;99.90;;;;;;5032341;28;20065;-83
2022/12/23 05:26:40;;;;;;;34.57;17.07;;;10.30;99.90;;;;;;5033911;28;20025;-83
2022/12/23 05:29:06;;;;;;;31.27;16.40;;;10.20;99.90;;;;;;5016221;28;20037;-83
2022/12/23 05:31:31;;;;;;;32.83;15.03;;;10.20;99.90;;;;;;5034146;28;20033;-83
2022/12/23 05:33:57;;;;;;;30.23;15.50;;;10.20;99.90;;;;;;5032533;28;20037;-84
2022/12/23 05:36:23;;;;;;;32.60;16.77;;;10.20;99.90;;;;;;5032907;28;20445;-83
2022/12/23 05:38:48;;;;;;;30.43;14.60;;;10.20;99.90;;;;;;5032655;28;20464;-83
2022/12/23 05:41:15;;;;;;;29.63;14.83;;;10.10;99.90;;;;;;5032410;28;20394;-83
2022/12/23 05:43:41;;;;;;;27.87;14.73;;;10.20;99.90;;;;;;5032790;28;20560;-84
2022/12/23 05:46:07;;;;;;;31.00;13.93;;;10.20;99.90;;;;;;5032400;28;20053;-84
2022/12/23 05:48:32;;;;;;;32.57;14.27;;;10.20;99.90;;;;;;5031134;28;20474;-83
2022/12/23 05:50:58;;;;;;;27.37;13.23;;;10.10;99.90;;;;;;5014673;28;20053;-83
2022/12/23 05:53:24;;;;;;;25.77;13.30;;;10.20;99.90;;;;;;5027619;28;20034;-83
2022/12/23 05:55:50;;;;;;;28.23;13.77;;;10.20;99.90;;;;;;5027216;28;20053;-84
2022/12/23 05:58:15;;;;;;;26.60;13.57;;;10.10;99.90;;;;;;5013379;28;20029;-83
2022/12/23 06:00:41;;;;;;;24.87;13.20;;;10.10;99.90;;;;;;5030514;28;20061;-84
2022/12/23 06:03:07;;;;;;;25.83;13.60;;;10.20;99.90;;;;;;5031289;28;20037;-81
2022/12/23 06:05:35;;;;;;;29.40;14.30;;;10.10;99.90;;;;;;5029708;28;20068;-81
2022/12/23 06:08:01;;;;;;;27.23;13.27;;;10.10;99.90;;;;;;5040022;28;20110;-82
2022/12/23 06:10:26;;;;;;;26.67;13.23;;;10.10;99.90;;;;;;5029281;28;20058;-82
2022/12/23 06:12:52;;;;;;;26.70;12.10;;;10.10;99.90;;;;;;5031762;28;20108;-82
2022/12/23 06:15:17;;;;;;;25.13;12.77;;;10.10;99.90;;;;;;5047129;28;20033;-82
2022/12/23 06:17:43;;;;;;;29.33;13.20;;;10.10;99.90;;;;;;5015064;28;20028;-82
2022/12/23 06:20:09;;;;;;;25.00;12.57;;;10.10;99.90;;;;;;5048070;28;20030;-82
2022/12/23 06:22:35;;;;;;;26.67;12.27;;;10.00;99.90;;;;;;5033129;28;20022;-82
2022/12/23 06:25:01;;;;;;;23.67;11.67;;;10.00;99.90;;;;;;5032957;28;20048;-82
2022/12/23 06:27:26;;;;;;;23.20;10.83;;;10.00;99.90;;;;;;5048258;28;20045;-82
2022/12/23 06:29:52;;;;;;;23.80;12.00;;;9.90;99.90;;;;;;5048524;28;20524;-82
2022/12/23 06:32:18;;;;;;;24.17;12.17;;;10.00;99.90;;;;;;5048562;28;20502;-82
2022/12/23 06:34:43;;;;;;;23.30;11.17;;;10.00;99.90;;;;;;5032973;28;20033;-82
2022/12/23 06:37:09;;;;;;;23.53;11.67;;;10.00;99.90;;;;;;5031605;28;20033;-82
2022/12/23 06:39:35;;;;;;;22.57;10.87;;;9.90;99.90;;;;;;5032472;28;20060;-82
2022/12/23 06:42:00;;;;;;;23.93;11.97;;;9.90;99.90;;;;;;5033226;28;20381;-83
2022/12/23 06:44:26;;;;;;;22.30;10.50;;;10.00;99.90;;;;;;5033055;28;20037;-83
2022/12/23 06:46:51;;;;;;;22.00;11.13;;;9.90;99.90;;;;;;5048374;28;20029;-84
2022/12/23 06:49:17;;;;;;;29.53;11.93;;;9.90;99.90;;;;;;5031400;28;20148;-84
2022/12/23 06:51:43;;;;;;;24.27;11.23;;;9.90;99.90;;;;;;5052748;28;20041;-83
2022/12/23 06:54:10;;;;;;;21.77;11.07;;;9.90;99.90;;;;;;5053479;28;20045;-83
2022/12/23 06:56:36;;;;;;;24.27;10.87;;;9.90;99.90;;;;;;5034819;28;20021;-83
2022/12/23 06:59:02;;;;;;;23.90;11.33;;;9.90;99.90;;;;;;5034714;28;20026;-84
2022/12/23 07:01:27;;;;;;;26.30;11.63;;;9.90;99.90;;;;;;5037742;28;20112;-83
2022/12/23 07:03:53;;;;;;;24.67;11.70;;;9.90;99.90;;;;;;5036793;28;20067;-83
2022/12/23 07:06:19;;;;;;;21.13;11.10;;;9.90;99.90;;;;;;5036433;28;20026;-83
2022/12/23 07:08:44;;;;;;;25.57;11.07;;;9.80;99.90;;;;;;5041536;28;20033;-82
2022/12/23 07:11:10;;;;;;;23.90;11.53;;;9.90;99.90;;;;;;5052402;28;20033;-82
2022/12/23 07:13:35;;;;;;;21.93;11.07;;;9.80;99.90;;;;;;5035501;28;20029;-83
2022/12/23 07:16:07;;;;;;;23.97;11.40;;;9.80;99.90;;;;;;5035318;28;20026;-83
2022/12/23 07:18:33;;;;;;;26.10;12.37;;;9.80;99.90;;;;;;5052101;28;20025;-84
2022/12/23 07:21:00;;;;;;;25.43;10.97;;;9.80;99.90;;;;;;5034944;28;20037;-83
2022/12/23 07:23:26;;;;;;;23.53;11.37;;;9.80;99.90;;;;;;5035936;28;20045;-83
2022/12/23 07:25:52;;;;;;;29.50;12.40;;;9.80;99.90;;;;;;5036625;28;20025;-84
2022/12/23 07:28:17;;;;;;;23.83;11.40;;;9.80;99.90;;;;;;5017872;28;20040;-84
2022/12/23 07:30:43;;;;;;;22.33;11.17;;;9.80;99.90;;;;;;5048519;28;20387;-83
2022/12/23 07:33:09;;;;;;;28.60;11.73;;;9.80;99.90;;;;;;5034520;28;20045;-83
2022/12/23 07:35:35;;;;;;;23.43;11.80;;;9.80;99.90;;;;;;5034091;28;20035;-83
2022/12/23 07:38:00;;;;;;;22.73;10.87;;;9.90;99.90;;;;;;5034241;28;20407;-82
2022/12/23 07:40:26;;;;;;;24.73;12.10;;;9.90;99.90;;;;;;5051161;28;20481;-83
2022/12/23 07:42:57;;;;;;;23.83;11.20;;;9.90;99.90;;;;;;5034429;28;20033;-83
2022/12/23 07:45:27;;;;;;;25.40;11.70;;;9.90;99.90;;;;;;5035666;28;20047;-82
2022/12/23 07:47:54;;;;;;;24.27;11.70;;;9.90;99.90;;;;;;5034467;28;20429;-83
2022/12/23 07:50:20;;;;;;;24.97;12.20;;;9.90;99.90;;;;;;5035213;28;20021;-83
2022/12/23 07:52:46;;;;;;;25.37;12.10;;;10.00;99.90;;;;;;5034252;28;20121;-83
2022/12/23 07:55:12;;;;;;;24.47;11.27;;;10.00;99.90;;;;;;5034169;28;20112;-83
2022/12/23 07:57:39;;;;;;;23.67;11.63;;;10.00;99.90;;;;;;5035313;28;20064;-83
2022/12/23 08:00:06;;;;;;;27.27;12.30;;;10.00;99.90;;;;;;5050864;28;20049;-83
2022/12/23 08:02:32;;;;;;;23.80;12.43;;;10.10;99.90;;;;;;5034141;28;20104;-83
2022/12/23 08:04:58;;;;;;;31.17;12.37;;;10.00;99.90;;;;;;5036137;28;20044;-82
2022/12/23 08:07:23;;;;;;;23.60;11.83;;;10.00;99.90;;;;;;5035553;28;20029;-83
2022/12/23 08:09:49;;;;;;;25.33;12.07;;;10.10;99.90;;;;;;5033654;28;20029;-83
2022/12/23 08:12:15;;;;;;;24.27;11.47;;;10.10;99.90;;;;;;5033119;28;20026;-82
2022/12/23 08:14:40;;;;;;;25.97;11.80;;;10.10;99.90;;;;;;5033864;28;20045;-83
2022/12/23 08:17:06;;;;;;;27.23;12.27;;;10.20;99.90;;;;;;5033750;28;20022;-83
2022/12/23 08:19:31;;;;;;;27.50;13.20;;;10.10;99.90;;;;;;5034669;28;20027;-81
2022/12/23 08:21:57;;;;;;;22.03;11.27;;;10.20;99.90;;;;;;5050041;28;20392;-83
2022/12/23 08:24:23;;;;;;;21.85;11.10;;;10.20;99.90;;;;;;5050064;28;20041;-83
2022/12/23 08:26:48;;;;;;;20.97;11.07;;;10.20;99.90;;;;;;5047162;28;20030;-83
2022/12/23 08:29:14;;;;;;;24.07;12.97;;;10.20;99.90;;;;;;5015381;28;20022;-83
2022/12/23 08:31:39;;;;;;;21.90;11.57;;;10.20;99.90;;;;;;5047402;28;20041;-83
2022/12/23 08:34:05;;;;;;;21.23;11.30;;;10.20;99.90;;;;;;5015216;28;20033;-83
2022/12/23 08:36:33;;;;;;;25.00;12.50;;;10.20;99.90;;;;;;5030524;28;20034;-83
2022/12/23 08:39:00;;;;;;;21.50;11.60;;;10.30;99.90;;;;;;5047076;28;20057;-83
2022/12/23 08:41:29;;;;;;;21.13;10.90;;;10.20;99.90;;;;;;5030644;28;20022;-82
2022/12/23 08:43:55;;;;;;;22.67;11.30;;;10.30;99.90;;;;;;5015149;28;20578;-83
2022/12/23 08:46:22;;;;;;;22.25;11.48;;;10.30;99.90;;;;;;5034223;28;20474;-83
2022/12/23 08:48:48;;;;;;;20.57;11.73;;;10.30;99.90;;;;;;5033259;28;20025;-83
2022/12/23 08:51:15;;;;;;;22.57;12.40;;;10.30;99.90;;;;;;5049829;28;20433;-83
2022/12/23 08:53:41;;;;;;;21.53;11.37;;;10.30;99.90;;;;;;5050245;28;20045;-83
2022/12/23 08:56:14;;;;;;;25.60;12.30;;;10.30;99.90;;;;;;5034866;28;20037;-84
2022/12/23 08:58:42;;;;;;;26.17;13.80;;;10.30;99.90;;;;;;5034749;28;20473;-84
2022/12/23 09:01:10;;;;;;;26.23;13.73;;;10.40;99.90;;;;;;5033442;28;20032;-85
2022/12/23 09:03:36;;;;;;;26.77;13.13;;;10.40;99.90;;;;;;5035103;28;20836;-84
2022/12/23 09:06:08;;;;;;;26.77;12.93;;;10.40;99.90;;;;;;5033765;28;20045;-85
2022/12/23 09:08:34;;;;;;;24.93;13.13;;;10.40;99.90;;;;;;5034320;28;20057;-85
2022/12/23 09:11:00;;;;;;;29.33;14.53;;;10.40;99.90;;;;;;5050259;28;20061;-85
2022/12/23 09:13:27;;;;;;;29.07;14.87;;;10.40;99.90;;;;;;5032759;28;20013;-84
2022/12/23 09:15:53;;;;;;;30.83;15.73;;;10.40;99.90;;;;;;5033870;28;20064;-85
2022/12/23 09:18:18;;;;;;;33.40;16.97;;;10.40;99.90;;;;;;5032363;28;20072;-84
2022/12/23 09:20:45;;;;;;;29.50;15.23;;;10.40;99.90;;;;;;5049622;28;20068;-83
2022/12/23 09:23:11;;;;;;;32.87;15.57;;;10.40;99.90;;;;;;5031285;28;20036;-85
2022/12/23 09:25:37;;;;;;;33.87;16.53;;;10.40;99.90;;;;;;5032536;28;20037;-85
2022/12/23 09:28:03;;;;;;;33.37;16.50;;;10.50;99.90;;;;;;5032991;28;20025;-84
2022/12/23 09:30:29;;;;;;;35.67;16.63;;;10.50;99.90;;;;;;5034235;28;20033;-83
2022/12/23 09:32:54;;;;;;;32.55;16.58;;;10.40;99.90;;;;;;5033408;28;20029;-85
2022/12/23 09:35:20;;;;;;;34.50;16.67;;;10.50;99.90;;;;;;5032881;28;20026;-85
2022/12/23 09:37:46;;;;;;;36.97;16.90;;;10.50;99.90;;;;;;5032940;28;20029;-85
2022/12/23 09:40:14;;;;;;;37.10;16.70;;;10.50;99.90;;;;;;5033215;28;20486;-85
2022/12/23 09:43:09;;;;;;;39.90;17.63;;;10.50;99.90;;;;;;5033050;28;20036;-85
2022/12/23 09:45:38;;;;;;;37.37;18.07;;;10.50;99.90;;;;;;5032883;28;20528;-84
2022/12/23 09:48:08;;;;;;;32.17;15.37;;;10.50;99.90;;;;;;5033712;28;20040;-85
2022/12/23 09:50:34;;;;;;;35.80;17.40;;;10.50;99.90;;;;;;5033584;28;20025;-85
2022/12/23 09:53:06;;;;;;;41.73;17.63;;;10.50;99.90;;;;;;5032869;28;20489;-85
2022/12/23 09:55:59;;;;;;;34.07;16.27;;;10.50;99.90;;;;;;5032190;28;20120;-84
2022/12/23 09:58:49;;;;;;;37.27;15.57;;;10.50;99.90;;;;;;5034030;28;20477;-85
2022/12/23 10:01:31;;;;;;;34.38;15.52;;;10.50;99.90;;;;;;5033744;28;20021;-84
2022/12/23 10:04:19;;;;;;;35.63;16.40;;;10.50;99.90;;;;;;5032422;28;20029;-84
2022/12/23 10:06:49;;;;;;;35.30;16.53;;;10.50;99.90;;;;;;5032615;28;20108;-84
2022/12/23 10:09:17;;;;;;;32.80;15.60;;;10.60;99.90;;;;;;5032672;28;20032;-84
2022/12/23 10:11:45;;;;;;;37.27;16.07;;;10.60;99.90;;;;;;5032711;28;20135;-85
2022/12/23 10:14:30;;;;;;;38.50;16.53;;;10.50;99.90;;;;;;5033523;28;20477;-85
2022/12/23 10:17:07;;;;;;;;;;;10.60;99.90;;;;;;5034008;28;20025;-85
2022/12/23 10:19:42;;;;;;;34.75;16.23;;;10.60;99.90;;;;;;5032982;28;19905;-84
2022/12/23 10:22:25;;;;;;;33.30;16.53;;;10.60;99.90;;;;;;5032616;28;20025;-84
2022/12/23 10:24:52;;;;;;;32.17;15.40;;;10.60;99.90;;;;;;5033205;28;20037;-85
2022/12/23 10:27:24;;;;;;;37.53;17.23;;;10.60;99.90;;;;;;5033408;28;20024;-85
2022/12/23 10:29:50;;;;;;;38.97;17.55;;;10.70;99.90;;;;;;5033605;28;20033;-84
2022/12/23 10:32:18;;;;;;;32.42;16.10;;;10.70;99.90;;;;;;5032965;28;20164;-85
2022/12/23 10:34:56;;;;;;;34.22;17.67;;;10.70;99.90;;;;;;5032512;28;20053;-85
2022/12/23 10:37:32;;;;;;;32.27;16.87;;;10.70;99.90;;;;;;5033016;28;20032;-85
2022/12/23 10:40:18;;;;;;;34.80;16.85;;;10.70;99.90;;;;;;5034460;28;20510;-84
2022/12/23 10:43:14;;;;;;;35.17;16.80;;;10.80;99.90;;;;;;5032054;28;20034;-85
2022/12/23 10:45:49;;;;;;;35.37;17.77;;;10.80;99.90;;;;;;5033745;28;20051;-85
2022/12/23 10:48:36;;;;;;;35.97;19.17;;;10.80;99.90;;;;;;5033552;28;20037;-85
2022/12/23 10:51:20;;;;;;;40.47;19.50;;;10.70;99.90;;;;;;5032597;28;20025;-85
2022/12/23 10:54:02;;;;;;;44.17;19.58;;;10.80;99.90;;;;;;5031904;28;20515;-84
2022/12/23 10:56:29;;;;;;;36.72;18.65;;;10.70;99.90;;;;;;5032122;28;20091;-83
2022/12/23 10:58:58;;;;;;;37.00;18.87;;;10.80;99.90;;;;;;5033018;28;20084;-84
2022/12/23 11:01:24;;;;;;;37.43;19.53;;;10.80;99.90;;;;;;5032086;28;20531;-84
2022/12/23 11:04:14;;;;;;;37.00;18.63;;;10.80;99.90;;;;;;5032691;28;20045;-84
2022/12/23 11:06:46;;;;;;;39.50;20.55;;;10.80;99.90;;;;;;5031834;28;20018;-86
2022/12/23 11:09:23;;;;;;;35.83;18.23;;;10.80;99.90;;;;;;5031459;28;20021;-84
2022/12/23 11:12:06;;;;;;;38.03;20.00;;;10.80;99.90;;;;;;5032986;28;20029;-86
2022/12/23 11:14:34;;;;;;;37.87;20.03;;;10.90;99.90;;;;;;5031675;28;20608;-83
2022/12/23 11:16:59;;;;;;;45.78;22.45;;;10.80;99.90;;;;;;5032821;28;20026;-84
2022/12/23 11:19:25;;;;;;;49.60;23.27;;;10.90;99.90;;;;;;5030900;28;20038;-84
2022/12/23 11:21:59;;;;;;;55.03;26.10;;;10.90;99.90;;;;;;5030774;28;20034;-83
2022/12/23 11:24:32;;;;;;;;;;;10.80;99.90;;;;;;5031976;28;20140;-84
2022/12/23 11:27:04;;;;;;;59.47;27.35;;;10.80;99.90;;;;;;5030868;28;20362;-83
2022/12/23 11:29:36;;;;;;;56.38;28.10;;;10.90;99.90;;;;;;5030488;28;20021;-83
2022/12/23 11:32:14;;;;;;;54.58;28.00;;;10.90;99.90;;;;;;5030393;28;20029;-84
2022/12/23 11:34:44;;;;;;;60.30;27.83;;;10.80;99.90;;;;;;5029970;28;20032;-84
2022/12/23 11:37:30;;;;;;;60.75;28.20;;;10.80;99.90;;;;;;5030812;28;20052;-84
2022/12/23 11:39:56;;;;;;;55.92;26.88;;;10.80;99.90;;;;;;5032315;28;20033;-83
2022/12/23 11:42:28;;;;;;;57.95;28.90;;;10.80;99.90;;;;;;5032151;28;20052;-84
2022/12/23 11:44:56;;;;;;;56.17;28.30;;;10.80;99.90;;;;;;5027750;28;20470;-84
2022/12/23 11:47:22;;;;;;;59.80;28.57;;;10.90;99.90;;;;;;5034478;28;20037;-84
2022/12/23 11:49:52;;;;;;;58.40;27.58;;;10.80;99.90;;;;;;5034078;28;20435;-84
2022/12/23 11:52:21;;;;;;;48.63;25.20;;;10.80;99.90;;;;;;5034594;28;20040;-84
2022/12/23 11:54:53;;;;;;;52.08;25.10;;;10.80;99.90;;;;;;5034627;28;20029;-84
2022/12/23 11:57:26;;;;;;;50.45;24.55;;;10.80;99.90;;;;;;5034823;28;20026;-84
2022/12/23 11:59:56;;;;;;;51.85;25.80;;;10.80;99.90;;;;;;5034845;28;20017;-84
2022/12/23 12:02:43;;;;;;;48.33;24.03;;;10.80;99.90;;;;;;5034846;28;20033;-84
2022/12/23 12:05:29;;;;;;;48.03;24.27;;;10.80;99.90;;;;;;5034252;28;20037;-84
2022/12/23 12:08:00;;;;;;;41.75;22.38;;;10.80;99.90;;;;;;5034930;28;20025;-84
2022/12/23 12:10:30;;;;;;;46.40;22.97;;;10.80;99.90;;;;;;5036548;28;20144;-84
2022/12/23 12:13:01;;;;;;;43.90;22.33;;;10.80;99.90;;;;;;5036002;28;20021;-83
2022/12/23 12:15:35;;;;;;;39.10;20.75;;;10.80;99.90;;;;;;5036853;28;20025;-83
2022/12/23 12:18:05;;;;;;;38.20;21.33;;;10.90;99.90;;;;;;5036402;28;20033;-84
2022/12/23 12:20:40;;;;;;;41.13;21.02;;;10.80;99.90;;;;;;5036776;28;20025;-84
2022/12/23 12:23:28;;;;;;;40.78;20.77;;;10.80;99.90;;;;;;5035121;28;20108;-85
2022/12/23 12:26:01;;;;;;;42.50;20.75;;;10.90;99.90;;;;;;5034705;28;20116;-84
2022/12/23 12:28:40;;;;;;;35.47;19.20;;;10.90;99.90;;;;;;5033944;28;20021;-84
2022/12/23 12:31:29;;;;;;;38.93;21.03;;;10.90;99.90;;;;;;5033866;28;20033;-85
2022/12/23 12:34:03;;;;;;;36.67;19.60;;;10.90;99.90;;;;;;5028159;28;20075;-84
2022/12/23 12:36:51;;;;;;;38.05;20.33;;;10.90;99.90;;;;;;5035143;28;20057;-84
2022/12/23 12:39:40;;;;;;;33.45;19.30;;;10.90;99.90;;;;;;5033688;28;20053;-83
2022/12/23 12:42:55;;;;;;;36.58;18.63;;;10.90;99.90;;;;;;5028746;28;20034;-84
2022/12/23 12:45:38;;;;;;;33.40;17.60;;;10.90;99.90;;;;;;4993320;28;20064;-85
2022/12/23 12:48:45;;;;;;;34.43;19.10;;;10.90;99.90;;;;;;5028760;28;20041;-84
2022/12/23 12:51:32;;;;;;;35.83;19.53;;;10.80;99.90;;;;;;5011385;28;20276;-84
2022/12/23 12:54:18;;;;;;;35.50;19.93;;;10.80;99.90;;;;;;5033876;28;20478;-84
2022/12/23 12:56:52;;;;;;;31.10;17.83;;;10.80;99.90;;;;;;5035032;28;20488;-84
2022/12/23 12:59:30;;;;;;;35.33;17.27;;;10.80;99.90;;;;;;5016267;28;20040;-85
2022/12/23 13:02:08;;;;;;;37.30;18.60;;;10.80;99.90;;;;;;5016080;28;20030;-86
2022/12/23 13:04:46;;;;;;;34.73;18.87;;;10.80;99.90;;;;;;5014805;28;20536;-86
2022/12/23 13:07:17;;;;;;;35.43;17.83;;;10.80;99.90;;;;;;5016485;28;20030;-86
2022/12/23 13:10:25;;;;;;;34.17;18.27;;;10.80;99.90;;;;;;5031352;28;20033;-84
2022/12/23 13:13:12;;;;;;;31.25;17.65;;;10.80;99.90;;;;;;5014731;28;20042;-86
2022/12/23 13:15:40;;;;;;;37.60;18.67;;;10.80;99.90;;;;;;5030918;28;20033;-85
2022/12/23 13:18:14;;;;;;;29.47;16.80;;;10.80;99.90;;;;;;5030921;28;20022;-85